Ledoux, New Mexico
Current Conditions -  °F | °C
As of 3:55 PM on Tuesday 25 Nov 2014 (Local Time) from KAXX Reporting Station
Clear Clear  
Wind Chill: 22°   Ceiling: Unl
Heat Index: 29°   Visibility: 10mi
Dew Point:   Wind: 7mph
Humidity: 41%   Direction: 230°SW
Pressure: 30.17"   Gusts: 24mph
Location:  36.0379°N, 105.295°W
Report Text: KAXX 252255Z AUTO 23006G21KT 180V250 10SM CLR M01/M13 A3017 RMK AO2 T10151133
Loading
Personal Weather Stations






























Interactive Weather Map New forecast layout! Learn more

10-Day Weather Forecast

Advertisements
Track Severe Weather on mobile